Аэропорт: Чертовицкое. Воронеж

ICAO: UUOO

METAR:
2019/03/26 13:00
UUOO 261300Z 23003MPS 190V270 9999 BKN032 07/00 Q1008 R30/090060 NOSIG RMK QFE743
METAR:
2018/12/04 17:51
TAF 
      AMD TAF 
      AMD UUOO 041549Z 0417/0524 14004MPS 0600 FZFG VV002 
      TEMPO 0418/0421 1400 FZDZ BR VV002